Time;durP1;ratioP1;P1;durP2;ratioP2;P2;SDS_P1;SDS_P2;PMS_P1;PMS_P2;Temp;Humidity;BMP_temperature;BMP_pressure;BME280_temperature;BME280_humidity;BME280_pressure;Samples;Min_cycle;Max_cycle;Signal;HPM_P1;HPM_P2
2021/04/23 00:00:55;;;;;;;3.50;1.30;;;20.60;39.80;;;;;;5093602;28;20556;-62
2021/04/23 00:03:38;;;;;;;5.03;1.17;;;20.60;39.80;;;;;;5092566;28;20142;-57
2021/04/23 00:06:14;;;;;;;2.47;1.33;;;20.60;39.80;;;;;;5087074;28;20024;-63
2021/04/23 00:08:43;;;;;;;4.63;1.20;;;20.60;39.80;;;;;;5093177;28;20031;-58
2021/04/23 00:11:10;;;;;;;5.60;1.25;;;20.60;39.80;;;;;;5092029;28;20496;-61
2021/04/23 00:13:38;;;;;;;4.32;1.30;;;20.60;39.80;;;;;;5083479;28;20036;-58
2021/04/23 00:16:04;;;;;;;2.33;1.02;;;20.60;39.80;;;;;;5092889;28;20024;-62
2021/04/23 00:18:29;;;;;;;3.60;1.30;;;20.60;39.70;;;;;;5092846;28;20024;-58
2021/04/23 00:20:55;;;;;;;2.97;1.17;;;20.60;39.80;;;;;;5093144;28;20465;-58
2021/04/23 00:23:21;;;;;;;2.00;1.15;;;20.60;39.70;;;;;;5092000;28;20028;-57
2021/04/23 00:25:48;;;;;;;1.95;1.13;;;20.60;39.70;;;;;;5093383;28;20024;-59
2021/04/23 00:28:15;;;;;;;3.05;1.15;;;20.60;40.40;;;;;;5091735;28;20104;-60
2021/04/23 00:30:48;;;;;;;2.53;1.48;;;20.60;39.70;;;;;;5093192;28;20023;-58
2021/04/23 00:33:14;;;;;;;3.50;1.27;;;20.60;39.70;;;;;;5092271;28;20043;-60
2021/04/23 00:35:43;;;;;;;2.40;1.23;;;20.60;39.70;;;;;;5092488;28;20024;-58
2021/04/23 00:38:15;;;;;;;2.33;1.10;;;20.60;39.70;;;;;;5090551;28;20477;-60
2021/04/23 00:40:49;;;;;;;3.10;1.33;;;20.60;39.70;;;;;;5092639;28;20024;-58
2021/04/23 00:43:20;;;;;;;3.05;1.10;;;20.60;39.70;;;;;;5092111;28;20032;-60
2021/04/23 00:45:47;;;;;;;2.33;1.30;;;20.60;39.70;;;;;;5092543;28;20150;-59
2021/04/23 00:48:13;;;;;;;1.95;1.20;;;20.60;39.60;;;;;;5091730;28;20028;-59
2021/04/23 00:50:39;;;;;;;1.70;1.05;;;20.60;39.60;;;;;;5092619;28;20060;-58
2021/04/23 00:53:10;;;;;;;3.35;1.20;;;20.60;39.60;;;;;;5091911;28;20047;-62
2021/04/23 00:55:36;;;;;;;3.42;1.10;;;20.60;39.60;;;;;;5092797;28;20024;-59
2021/04/23 00:58:06;;;;;;;2.08;1.20;;;20.60;39.60;;;;;;5092240;28;20028;-53
2021/04/23 01:00:32;;;;;;;3.78;1.42;;;20.60;39.60;;;;;;5092908;28;20024;-60
2021/04/23 01:02:58;;;;;;;2.78;1.20;;;20.60;39.60;;;;;;5092745;28;20358;-59
2021/04/23 01:05:33;;;;;;;1.33;0.88;;;20.60;39.60;;;;;;5091867;28;20097;-59
2021/04/23 01:07:59;;;;;;;3.47;1.40;;;20.60;40.30;;;;;;5092498;28;20027;-59
2021/04/23 01:10:26;;;;;;;1.95;1.10;;;20.60;39.60;;;;;;5091305;28;20161;-59
2021/04/23 01:12:51;;;;;;;3.55;1.42;;;20.60;39.60;;;;;;5092271;28;20119;-59
2021/04/23 01:15:17;;;;;;;4.05;1.20;;;20.60;39.60;;;;;;5089989;28;20115;-60
2021/04/23 01:17:43;;;;;;;3.63;1.23;;;20.60;39.60;;;;;;5092004;28;20047;-59
2021/04/23 01:20:10;;;;;;;3.35;1.23;;;20.60;39.60;;;;;;5091452;28;20023;-60
2021/04/23 01:22:36;;;;;;;2.22;0.98;;;20.60;39.60;;;;;;5091745;28;20035;-58
2021/04/23 01:25:03;;;;;;;2.15;1.27;;;20.60;39.60;;;;;;5092278;28;20101;-59
2021/04/23 01:27:28;;;;;;;2.55;1.30;;;20.60;39.60;;;;;;5090829;28;20035;-59
2021/04/23 01:29:54;;;;;;;2.92;1.08;;;20.60;39.60;;;;;;5091686;28;20462;-50
2021/04/23 01:32:20;;;;;;;2.75;1.33;;;20.60;39.60;;;;;;5091281;28;20081;-59
2021/04/23 01:34:46;;;;;;;2.22;1.30;;;20.60;40.20;;;;;;5091865;28;20412;-58
2021/04/23 01:37:13;;;;;;;2.55;1.42;;;20.60;39.50;;;;;;5090893;28;20039;-59
2021/04/23 01:39:40;;;;;;;4.35;1.58;;;20.60;39.50;;;;;;5090360;28;20032;-59
2021/04/23 01:42:09;;;;;;;3.38;1.20;;;20.60;39.50;;;;;;5091098;28;20085;-62
2021/04/23 01:44:36;;;;;;;1.80;1.20;;;20.60;39.50;;;;;;5091400;28;20374;-60
2021/04/23 01:47:03;;;;;;;4.03;1.23;;;20.60;39.50;;;;;;5091668;28;20028;-59
2021/04/23 01:49:29;;;;;;;2.88;1.23;;;20.60;39.50;;;;;;5090645;28;20024;-61
2021/04/23 01:51:58;;;;;;;4.93;1.63;;;20.60;39.50;;;;;;5073778;28;20425;-59
2021/04/23 01:54:25;;;;;;;3.88;1.73;;;20.60;39.50;;;;;;5090898;28;20020;-59
2021/04/23 01:56:51;;;;;;;3.10;1.42;;;20.60;39.50;;;;;;5091627;28;20024;-59
2021/04/23 01:59:18;;;;;;;2.67;1.77;;;20.60;39.40;;;;;;5090443;28;20438;-60
2021/04/23 02:01:44;;;;;;;2.90;1.30;;;20.60;39.50;;;;;;5091078;28;20468;-60
2021/04/23 02:04:12;;;;;;;2.58;1.20;;;20.60;39.40;;;;;;5089263;28;20055;-60
2021/04/23 02:06:43;;;;;;;3.30;1.50;;;20.60;39.40;;;;;;5091624;28;20089;-54
2021/04/23 02:09:10;;;;;;;2.13;1.25;;;20.60;39.40;;;;;;5090864;28;20043;-62
2021/04/23 02:11:39;;;;;;;3.03;1.20;;;20.60;39.50;;;;;;5091653;28;20170;-58
2021/04/23 02:14:05;;;;;;;3.28;1.40;;;20.60;39.40;;;;;;5091216;28;20127;-58
2021/04/23 02:16:31;;;;;;;4.03;1.60;;;20.60;39.40;;;;;;5089398;28;20118;-57
2021/04/23 02:18:57;;;;;;;2.63;1.60;;;20.60;39.50;;;;;;5091213;28;20536;-61
2021/04/23 02:21:23;;;;;;;3.22;1.48;;;20.70;39.50;;;;;;5090432;28;20101;-60
2021/04/23 02:23:50;;;;;;;2.10;1.25;;;20.70;39.60;;;;;;5091042;28;20028;-59
2021/04/23 02:26:17;;;;;;;3.50;1.55;;;20.70;39.50;;;;;;5090418;28;20024;-60
2021/04/23 02:28:44;;;;;;;6.57;1.40;;;20.70;39.40;;;;;;5091103;28;20032;-60
2021/04/23 02:31:17;;;;;;;2.65;1.50;;;20.70;39.50;;;;;;5090536;28;20031;-62
2021/04/23 02:33:45;;;;;;;2.85;1.30;;;20.60;39.40;;;;;;5079051;28;20040;-59
2021/04/23 02:36:10;;;;;;;3.72;2.15;;;20.60;39.40;;;;;;5090329;28;20028;-62
2021/04/23 02:38:37;;;;;;;3.10;1.17;;;20.60;39.40;;;;;;5090161;28;20035;-58
2021/04/23 02:41:04;;;;;;;2.67;1.40;;;20.70;39.50;;;;;;5090937;28;20553;-62
2021/04/23 02:43:35;;;;;;;2.25;1.23;;;20.70;39.40;;;;;;5081707;28;20508;-60
2021/04/23 02:46:01;;;;;;;4.60;1.60;;;20.70;39.40;;;;;;5091232;28;20016;-59
2021/04/23 02:48:29;;;;;;;3.40;1.67;;;20.70;39.50;;;;;;5089992;28;20153;-58
2021/04/23 02:51:00;;;;;;;3.58;1.52;;;20.60;39.40;;;;;;5091209;28;20056;-59
2021/04/23 02:53:26;;;;;;;2.33;1.20;;;20.70;39.50;;;;;;5090757;28;20081;-60
2021/04/23 02:55:52;;;;;;;2.88;1.67;;;20.70;39.40;;;;;;5094769;28;20028;-59
2021/04/23 02:58:21;;;;;;;2.20;1.20;;;20.70;39.40;;;;;;5093930;28;20074;-59
2021/04/23 03:00:52;;;;;;;2.60;1.70;;;20.70;39.40;;;;;;5094340;28;20028;-58
2021/04/23 03:03:18;;;;;;;2.63;1.55;;;20.70;39.50;;;;;;5093732;28;20135;-60
2021/04/23 03:05:46;;;;;;;4.70;1.48;;;20.70;39.40;;;;;;5094201;28;20025;-60
2021/04/23 03:08:14;;;;;;;2.35;1.20;;;20.70;39.40;;;;;;5093775;28;20024;-60
2021/04/23 03:10:44;;;;;;;2.50;1.27;;;20.70;39.40;;;;;;5094583;28;20031;-60
2021/04/23 03:13:20;;;;;;;3.33;1.50;;;20.70;39.30;;;;;;5093909;28;20044;-63
2021/04/23 03:15:48;;;;;;;2.75;1.10;;;20.70;39.40;;;;;;5094854;28;20028;-59
2021/04/23 03:18:16;;;;;;;3.85;1.40;;;20.70;39.40;;;;;;5093603;28;20028;-60
2021/04/23 03:20:42;;;;;;;2.15;1.33;;;20.70;39.40;;;;;;5086615;28;20062;-60
2021/04/23 03:23:08;;;;;;;3.28;1.40;;;20.70;39.50;;;;;;5094314;28;20031;-62
2021/04/23 03:25:35;;;;;;;7.80;1.60;;;20.70;39.50;;;;;;5093432;28;20028;-54
2021/04/23 03:28:01;;;;;;;2.35;1.55;;;20.70;39.40;;;;;;5094510;28;20067;-59
2021/04/23 03:30:30;;;;;;;2.45;1.27;;;20.70;39.40;;;;;;5093488;28;20035;-59
2021/04/23 03:32:56;;;;;;;3.28;1.65;;;20.70;39.40;;;;;;5093708;28;20036;-58
2021/04/23 03:35:23;;;;;;;3.00;1.40;;;20.70;39.50;;;;;;5093285;28;20048;-58
2021/04/23 03:37:49;;;;;;;2.53;1.27;;;20.70;39.40;;;;;;5093971;28;20073;-60
2021/04/23 03:40:18;;;;;;;3.60;1.58;;;20.70;39.50;;;;;;5091563;28;20028;-60
2021/04/23 03:42:44;;;;;;;2.47;1.30;;;20.70;39.40;;;;;;5093229;28;20061;-60
2021/04/23 03:45:13;;;;;;;4.93;1.67;;;20.70;39.40;;;;;;5092708;28;20587;-62
2021/04/23 03:47:39;;;;;;;3.53;1.52;;;20.70;39.40;;;;;;5092790;28;20032;-62
2021/04/23 03:50:07;;;;;;;2.47;1.27;;;20.70;39.40;;;;;;5092094;28;20027;-60
2021/04/23 03:52:33;;;;;;;2.72;1.33;;;20.70;39.30;;;;;;5092525;28;20058;-59
2021/04/23 03:55:12;;;;;;;3.92;1.90;;;20.70;39.40;;;;;;5092315;28;20036;-60
2021/04/23 03:57:37;;;;;;;3.92;1.65;;;20.70;39.40;;;;;;5093493;28;20473;-59
2021/04/23 04:00:10;;;;;;;1.60;1.30;;;20.70;39.30;;;;;;5093938;28;20043;-61
2021/04/23 04:02:37;;;;;;;2.55;1.27;;;20.70;39.30;;;;;;5093334;28;20040;-60
2021/04/23 04:05:04;;;;;;;4.07;1.40;;;20.70;39.40;;;;;;5093043;28;20068;-60
2021/04/23 04:07:30;;;;;;;4.43;1.65;;;20.70;39.30;;;;;;5092692;28;20043;-60
2021/04/23 04:09:55;;;;;;;2.05;1.35;;;20.70;39.40;;;;;;5093369;28;20028;-60
2021/04/23 04:12:21;;;;;;;3.45;1.23;;;20.70;39.30;;;;;;5092592;28;20043;-60
2021/04/23 04:14:47;;;;;;;3.22;1.33;;;20.70;39.40;;;;;;5093113;28;20035;-60
2021/04/23 04:17:12;;;;;;;1.50;1.17;;;20.70;39.40;;;;;;5092360;28;20032;-62
2021/04/23 04:19:38;;;;;;;2.20;1.45;;;20.80;39.40;;;;;;5093230;28;20024;-58
2021/04/23 04:22:03;;;;;;;5.00;1.40;;;20.70;39.40;;;;;;5093133;28;20468;-59
2021/04/23 04:24:29;;;;;;;3.17;1.45;;;20.70;39.40;;;;;;5092096;28;20083;-59
2021/04/23 04:26:55;;;;;;;1.88;1.10;;;20.70;39.50;;;;;;5093174;28;20021;-60
2021/04/23 04:29:20;;;;;;;1.95;1.48;;;20.80;39.60;;;;;;5092396;28;20032;-60
2021/04/23 04:31:47;;;;;;;2.28;1.42;;;20.70;39.50;;;;;;5092928;28;20536;-60
2021/04/23 04:34:13;;;;;;;2.22;1.58;;;20.70;39.40;;;;;;5091152;28;20386;-63
2021/04/23 04:36:40;;;;;;;2.53;1.63;;;20.80;39.50;;;;;;5092616;28;20145;-60
2021/04/23 04:39:06;;;;;;;3.65;2.08;;;20.70;39.50;;;;;;5093284;28;20028;-59
2021/04/23 04:41:33;;;;;;;2.40;1.27;;;20.80;39.50;;;;;;5092011;28;20603;-59
2021/04/23 04:43:59;;;;;;;5.70;2.35;;;20.80;39.50;;;;;;5092824;28;20032;-57
2021/04/23 04:46:24;;;;;;;2.92;1.25;;;20.80;39.50;;;;;;5091874;28;20059;-61
2021/04/23 04:48:50;;;;;;;2.80;1.60;;;20.70;39.40;;;;;;5092526;28;20401;-60
2021/04/23 04:51:16;;;;;;;5.18;1.60;;;20.80;39.50;;;;;;5091626;28;20039;-60
2021/04/23 04:53:41;;;;;;;1.70;1.30;;;20.70;39.40;;;;;;5092624;28;20559;-60
2021/04/23 04:56:07;;;;;;;2.00;1.30;;;20.80;39.50;;;;;;5092407;28;20043;-60
2021/04/23 04:58:35;;;;;;;2.30;1.38;;;20.80;39.60;;;;;;5091832;28;20040;-60
2021/04/23 05:01:03;;;;;;;3.63;1.30;;;20.80;39.40;;;;;;5092072;28;20015;-55
2021/04/23 05:03:29;;;;;;;2.63;1.42;;;20.80;39.40;;;;;;5089838;28;20055;-59
2021/04/23 05:05:54;;;;;;;3.20;1.30;;;20.80;39.50;;;;;;5092424;28;20017;-57
2021/04/23 05:08:20;;;;;;;1.98;0.90;;;20.80;39.50;;;;;;5091491;28;20473;-60
2021/04/23 05:10:46;;;;;;;2.83;1.40;;;20.80;39.40;;;;;;5091931;28;20028;-59
2021/04/23 05:13:12;;;;;;;1.83;1.48;;;20.80;39.50;;;;;;5091661;28;20042;-62
2021/04/23 05:15:38;;;;;;;2.25;1.30;;;20.80;39.50;;;;;;5091463;28;20107;-60
2021/04/23 05:18:04;;;;;;;2.58;1.33;;;20.80;39.60;;;;;;5091645;28;20023;-54
2021/04/23 05:20:30;;;;;;;4.13;1.85;;;20.80;39.80;;;;;;5091045;28;20513;-59
2021/04/23 05:22:55;;;;;;;6.07;2.10;;;20.80;40.30;;;;;;5091870;28;20114;-60
2021/04/23 05:25:23;;;;;;;3.97;1.50;;;20.80;40.70;;;;;;5091378;28;20031;-60
2021/04/23 05:27:49;;;;;;;6.85;1.40;;;20.90;40.80;;;;;;5092067;28;20385;-60
2021/04/23 05:30:19;;;;;;;2.58;1.30;;;20.80;40.90;;;;;;5091152;28;20039;-62
2021/04/23 05:32:46;;;;;;;4.72;1.85;;;20.90;41.00;;;;;;5090625;28;20036;-59
2021/04/23 05:35:15;;;;;;;3.70;1.50;;;20.80;41.00;;;;;;5091135;28;20036;-61
2021/04/23 05:37:41;;;;;;;5.18;1.33;;;20.80;40.90;;;;;;5091344;28;20028;-58
2021/04/23 05:40:10;;;;;;;2.53;1.45;;;20.90;41.00;;;;;;5091016;28;20389;-59
2021/04/23 05:42:36;;;;;;;3.20;1.33;;;20.80;41.00;;;;;;5090937;28;20021;-57
2021/04/23 05:45:04;;;;;;;2.13;1.20;;;20.90;41.40;;;;;;5090484;28;20024;-59
2021/04/23 05:47:30;;;;;;;2.67;1.40;;;20.90;41.10;;;;;;5090598;28;20028;-58
2021/04/23 05:49:56;;;;;;;3.63;1.88;;;20.90;41.10;;;;;;5091565;28;20035;-53
2021/04/23 05:52:22;;;;;;;2.97;1.42;;;20.90;41.10;;;;;;5090491;28;20047;-60
2021/04/23 05:54:47;;;;;;;3.28;1.80;;;20.80;41.10;;;;;;5091430;28;20381;-56
2021/04/23 05:57:13;;;;;;;4.90;1.80;;;20.80;41.00;;;;;;5091356;28;20385;-62
2021/04/23 05:59:39;;;;;;;3.28;1.70;;;20.80;41.00;;;;;;5090902;28;20086;-59
2021/04/23 06:02:09;;;;;;;5.05;1.85;;;20.80;41.20;;;;;;5091612;28;20024;-59
2021/04/23 06:04:36;;;;;;;4.15;2.10;;;20.90;41.20;;;;;;5090932;28;20040;-59
2021/04/23 06:07:02;;;;;;;4.75;2.03;;;20.80;41.20;;;;;;5090887;28;20388;-59
2021/04/23 06:09:28;;;;;;;6.45;1.80;;;20.80;41.20;;;;;;5090499;28;20085;-59
2021/04/23 06:11:54;;;;;;;4.45;1.58;;;20.80;41.20;;;;;;5091184;28;20064;-59
2021/04/23 06:14:23;;;;;;;2.40;1.45;;;20.80;41.20;;;;;;5090596;28;20401;-60
2021/04/23 06:16:51;;;;;;;2.63;1.70;;;20.80;41.20;;;;;;5091531;28;20050;-60
2021/04/23 06:19:17;;;;;;;4.05;1.65;;;20.80;41.20;;;;;;5083061;28;20085;-62
2021/04/23 06:21:43;;;;;;;4.60;1.90;;;20.80;41.20;;;;;;5090890;28;20032;-59
2021/04/23 06:24:09;;;;;;;5.53;2.28;;;20.80;41.20;;;;;;5090587;28;20028;-60
2021/04/23 06:26:35;;;;;;;6.35;1.98;;;20.80;41.10;;;;;;5090191;28;20050;-61
2021/04/23 06:29:00;;;;;;;7.40;2.15;;;20.80;41.20;;;;;;5094199;28;20031;-60
2021/04/23 06:31:26;;;;;;;3.33;1.77;;;20.80;41.10;;;;;;5093130;28;20028;-60
2021/04/23 06:33:52;;;;;;;5.15;1.90;;;20.80;41.70;;;;;;5094801;28;20469;-59
2021/04/23 06:36:20;;;;;;;4.38;1.52;;;20.80;41.10;;;;;;5094474;28;20039;-63
2021/04/23 06:38:46;;;;;;;2.47;1.60;;;20.80;41.10;;;;;;5094416;28;20499;-59
2021/04/23 06:41:12;;;;;;;6.03;1.85;;;20.80;41.00;;;;;;5095071;28;20062;-59
2021/04/23 06:43:38;;;;;;;3.28;1.95;;;20.90;41.10;;;;;;5094389;28;20028;-59
2021/04/23 06:46:05;;;;;;;3.53;1.85;;;20.80;41.00;;;;;;5094937;28;20024;-58
2021/04/23 06:48:31;;;;;;;2.28;1.48;;;20.80;41.00;;;;;;5085594;28;20148;-51
2021/04/23 06:50:57;;;;;;;2.78;1.92;;;20.80;41.00;;;;;;5088195;28;20576;-56
2021/04/23 06:53:24;;;;;;;5.75;1.92;;;20.80;41.00;;;;;;5088680;28;20362;-58
2021/04/23 06:55:50;;;;;;;4.68;2.03;;;20.80;40.90;;;;;;5088850;28;20039;-58
2021/04/23 06:58:15;;;;;;;4.15;1.63;;;20.80;41.00;;;;;;5087757;28;20038;-63
2021/04/23 07:00:42;;;;;;;3.85;1.80;;;20.80;40.90;;;;;;5088851;28;20016;-59
2021/04/23 07:03:10;;;;;;;4.68;2.20;;;20.80;40.90;;;;;;5087713;28;20056;-59
2021/04/23 07:05:45;;;;;;;4.03;2.00;;;20.80;40.90;;;;;;5087086;28;20466;-59
2021/04/23 07:08:12;;;;;;;4.65;2.10;;;20.80;40.90;;;;;;5086108;28;20035;-60
2021/04/23 07:10:39;;;;;;;5.32;1.95;;;20.80;40.80;;;;;;5087235;28;20213;-61
2021/04/23 07:13:05;;;;;;;5.38;2.60;;;20.80;40.80;;;;;;5089365;28;20097;-61
2021/04/23 07:15:32;;;;;;;3.25;1.83;;;20.80;40.80;;;;;;5089815;28;20736;-60
2021/04/23 07:17:58;;;;;;;4.38;2.03;;;20.80;40.70;;;;;;5088294;28;20038;-58
2021/04/23 07:20:24;;;;;;;4.18;2.08;;;20.90;40.80;;;;;;5084882;28;20028;-60
2021/04/23 07:22:51;;;;;;;5.30;2.22;;;20.90;40.70;;;;;;5087183;28;20386;-60
2021/04/23 07:25:18;;;;;;;5.30;2.20;;;20.90;40.70;;;;;;5087841;28;20517;-62
2021/04/23 07:27:45;;;;;;;7.63;2.05;;;20.90;40.70;;;;;;5088463;28;20513;-58
2021/04/23 07:30:19;;;;;;;4.50;2.10;;;20.90;40.80;;;;;;5085565;28;20025;-59
2021/04/23 07:32:45;;;;;;;4.13;1.77;;;20.90;40.80;;;;;;5087904;28;20035;-60
2021/04/23 07:35:11;;;;;;;5.85;2.10;;;20.90;40.90;;;;;;5089835;28;20024;-59
2021/04/23 07:37:37;;;;;;;7.03;2.00;;;20.90;40.90;;;;;;5089693;28;20135;-58
2021/04/23 07:40:05;;;;;;;5.40;2.33;;;20.90;41.10;;;;;;5087796;28;20036;-61
2021/04/23 07:42:31;;;;;;;5.53;2.40;;;21.00;41.20;;;;;;5081848;28;20483;-63
2021/04/23 07:44:57;;;;;;;7.30;2.40;;;21.00;41.30;;;;;;5092143;28;20107;-59
2021/04/23 07:47:22;;;;;;;9.82;2.97;;;21.00;41.60;;;;;;5085985;28;20024;-61
2021/04/23 07:49:49;;;;;;;7.15;2.33;;;21.00;41.60;;;;;;5090048;28;20055;-60
2021/04/23 07:52:15;;;;;;;8.38;3.33;;;21.00;41.80;;;;;;5085504;28;20454;-61
2021/04/23 07:54:41;;;;;;;11.35;4.25;;;20.80;34.70;;;;;;5085957;28;20111;-60
2021/04/23 07:57:12;;;;;;;10.85;3.75;;;18.90;30.70;;;;;;5087187;28;20420;-59
2021/04/23 07:59:38;;;;;;;12.45;4.03;;;17.90;31.80;;;;;;5085966;28;20056;-60
2021/04/23 08:02:05;;;;;;;14.18;4.43;;;17.60;32.00;;;;;;5091577;28;20043;-59
2021/04/23 08:04:30;;;;;;;10.85;4.28;;;17.30;31.60;;;;;;5086827;28;20040;-58
2021/04/23 08:06:56;;;;;;;10.10;3.88;;;17.40;32.10;;;;;;5086990;28;20021;-60
2021/04/23 08:09:22;;;;;;;8.65;4.03;;;17.20;31.80;;;;;;5086366;28;20016;-59
2021/04/23 08:11:48;;;;;;;13.25;3.88;;;16.90;32.20;;;;;;5083616;28;20028;-57
2021/04/23 08:14:14;;;;;;;11.35;3.60;;;16.60;32.80;;;;;;5088818;28;20076;-57
2021/04/23 08:16:40;;;;;;;14.80;3.25;;;16.70;32.90;;;;;;5087668;28;20039;-58
2021/04/23 08:19:05;;;;;;;9.63;3.40;;;17.00;32.50;;;;;;5085593;28;20020;-57
2021/04/23 08:21:31;;;;;;;9.38;3.72;;;17.00;32.10;;;;;;5090272;28;20036;-59
2021/04/23 08:23:57;;;;;;;15.05;3.95;;;16.90;32.00;;;;;;5085987;28;20042;-59
2021/04/23 08:26:24;;;;;;;9.05;3.72;;;17.00;32.10;;;;;;5085589;28;20367;-58
2021/04/23 08:28:50;;;;;;;9.95;3.40;;;17.20;32.10;;;;;;5077716;28;20097;-59
2021/04/23 08:31:16;;;;;;;11.20;3.72;;;17.90;31.40;;;;;;5070125;28;20032;-62
2021/04/23 08:33:42;;;;;;;10.82;3.80;;;18.40;31.00;;;;;;5083866;28;20028;-59
2021/04/23 08:36:08;;;;;;;9.55;3.58;;;18.60;30.50;;;;;;5087078;28;20413;-59
2021/04/23 08:38:34;;;;;;;9.80;3.70;;;18.80;30.00;;;;;;5084343;28;20020;-60
2021/04/23 08:41:00;;;;;;;12.32;3.45;;;18.90;29.90;;;;;;5086508;28;20521;-59
2021/04/23 08:43:26;;;;;;;8.05;3.60;;;19.00;29.90;;;;;;5090681;28;20032;-62
2021/04/23 08:45:53;;;;;;;8.65;3.05;;;19.00;30.10;;;;;;5087592;28;20381;-60
2021/04/23 08:48:20;;;;;;;9.52;2.83;;;19.10;30.90;;;;;;5086950;28;20386;-66
2021/04/23 08:50:46;;;;;;;9.68;2.97;;;19.40;32.90;;;;;;5087677;28;20043;-60
2021/04/23 08:53:12;;;;;;;6.10;2.75;;;19.50;32.40;;;;;;5085467;28;20040;-61
2021/04/23 08:55:38;;;;;;;10.07;2.90;;;19.70;33.40;;;;;;5085549;28;20595;-56
2021/04/23 08:58:04;;;;;;;9.60;2.80;;;19.70;33.10;;;;;;5085076;28;20036;-61
2021/04/23 09:00:30;;;;;;;6.78;2.38;;;19.80;33.60;;;;;;5088060;28;20035;-59
2021/04/23 09:02:56;;;;;;;8.77;2.50;;;19.90;33.90;;;;;;5086674;28;20036;-66
2021/04/23 09:05:22;;;;;;;5.72;2.13;;;20.00;34.10;;;;;;5087445;28;20480;-62
2021/04/23 09:08:03;;;;;;;6.93;2.88;;;20.00;34.10;;;;;;5086564;28;20077;-61
2021/04/23 09:10:30;;;;;;;9.23;2.50;;;20.00;34.10;;;;;;5085456;28;20103;-60
2021/04/23 09:13:14;;;;;;;7.13;3.42;;;20.00;34.30;;;;;;5089998;28;20043;-60
2021/04/23 09:15:43;;;;;;;7.82;2.33;;;20.00;33.60;;;;;;5085235;28;20043;-60
2021/04/23 09:18:16;;;;;;;8.73;2.85;;;20.00;33.60;;;;;;5088016;28;20107;-60
2021/04/23 09:20:47;;;;;;;10.70;3.33;;;20.00;33.20;;;;;;5086155;28;20024;-60
2021/04/23 09:23:20;;;;;;;7.50;2.88;;;20.00;32.80;;;;;;5086038;28;20031;-55
2021/04/23 09:25:54;;;;;;;8.55;3.22;;;20.00;32.60;;;;;;5086867;28;20465;-59
2021/04/23 09:28:37;;;;;;;9.25;3.42;;;20.10;32.70;;;;;;5085669;28;20036;-64
2021/04/23 09:31:34;;;;;;;11.57;3.30;;;20.10;32.70;;;;;;5086381;28;20028;-61
2021/04/23 09:34:05;;;;;;;8.88;2.95;;;20.10;32.60;;;;;;5074365;28;20075;-60
2021/04/23 09:36:32;;;;;;;8.60;2.88;;;20.10;32.80;;;;;;5083702;28;20032;-60
2021/04/23 09:39:11;;;;;;;6.65;3.15;;;20.10;32.70;;;;;;5084949;28;20059;-59
2021/04/23 09:41:39;;;;;;;7.00;3.20;;;20.20;32.70;;;;;;5088045;28;20613;-62
2021/04/23 09:44:31;;;;;;;9.82;3.63;;;20.20;32.60;;;;;;5084792;28;20036;-62
2021/04/23 09:47:14;;;;;;;8.45;2.75;;;20.20;32.40;;;;;;5088438;28;20045;-60
2021/04/23 09:49:43;;;;;;;;;;;20.20;32.90;;;;;;5083631;28;20043;-60
2021/04/23 09:52:12;;;;;;;9.70;3.30;;;20.20;32.60;;;;;;5084413;28;19908;-62
2021/04/23 09:54:38;;;;;;;9.27;2.55;;;20.20;32.30;;;;;;5085083;28;20023;-60
2021/04/23 09:57:36;;;;;;;7.80;3.00;;;20.20;32.80;;;;;;5084498;28;20099;-63
2021/04/23 10:00:08;;;;;;;8.30;2.67;;;20.20;32.50;;;;;;5073436;28;20036;-63
2021/04/23 10:02:38;;;;;;;5.80;2.47;;;20.20;32.20;;;;;;5087989;28;20633;-63
2021/04/23 10:05:05;;;;;;;8.68;2.65;;;20.30;32.90;;;;;;5089277;28;20044;-61
2021/04/23 10:07:32;;;;;;;12.50;3.70;;;20.30;32.60;;;;;;5082888;28;20394;-61
2021/04/23 10:10:09;;;;;;;9.43;2.60;;;20.30;32.00;;;;;;5085018;28;20070;-61
2021/04/23 10:12:35;;;;;;;8.35;2.90;;;20.30;32.10;;;;;;5082381;28;20036;-61
2021/04/23 10:15:05;;;;;;;9.65;2.40;;;20.30;32.00;;;;;;5085406;28;20043;-57
2021/04/23 10:17:31;;;;;;;6.85;3.08;;;20.30;32.40;;;;;;5084281;28;20035;-61
2021/04/23 10:19:58;;;;;;;7.20;2.60;;;20.30;32.40;;;;;;5087137;28;20024;-59
2021/04/23 10:22:24;;;;;;;3.35;1.95;;;20.30;32.70;;;;;;5087795;28;20063;-59
2021/04/23 10:24:51;;;;;;;4.18;2.10;;;20.40;33.10;;;;;;5085422;28;20039;-58
2021/04/23 10:27:19;;;;;;;6.10;1.88;;;20.40;33.00;;;;;;5086729;28;20036;-62
2021/04/23 10:29:47;;;;;;;7.03;2.88;;;20.40;33.20;;;;;;5084677;28;20518;-59
2021/04/23 10:32:14;;;;;;;7.78;2.40;;;20.50;33.20;;;;;;5085172;28;20503;-61
2021/04/23 10:34:41;;;;;;;7.50;2.50;;;20.50;32.50;;;;;;5084238;28;20093;-62
2021/04/23 10:37:08;;;;;;;9.75;3.60;;;20.40;32.00;;;;;;5084273;28;20394;-61
2021/04/23 10:39:36;;;;;;;7.30;2.22;;;20.50;32.60;;;;;;5086963;28;20583;-64
2021/04/23 10:42:04;;;;;;;10.57;3.35;;;20.40;32.10;;;;;;5085910;28;20051;-58
2021/04/23 10:44:58;;;;;;;5.60;2.78;;;20.20;30.30;;;;;;5084354;28;20120;-59
2021/04/23 10:47:32;;;;;;;8.55;3.13;;;20.00;30.70;;;;;;5085863;28;20032;-59
2021/04/23 10:50:09;;;;;;;7.22;3.17;;;20.10;30.00;;;;;;5083899;28;20494;-61
2021/04/23 10:52:34;;;;;;;9.32;3.47;;;19.80;28.80;;;;;;5083422;28;20192;-61
2021/04/23 10:55:07;;;;;;;12.50;4.10;;;19.60;28.80;;;;;;5085530;28;20056;-61
2021/04/23 10:57:52;;;;;;;9.70;3.45;;;19.40;28.70;;;;;;5082785;28;20111;-59
2021/04/23 11:00:44;;;;;;;7.15;3.05;;;19.50;28.90;;;;;;5085846;28;20043;-67
2021/04/23 11:03:36;;;;;;;11.55;4.75;;;19.50;29.00;;;;;;5084562;28;20509;-61
2021/04/23 11:06:06;;;;;;;11.93;4.05;;;19.40;29.10;;;;;;5081643;28;20459;-61
2021/04/23 11:08:37;;;;;;;8.23;3.78;;;19.20;28.80;;;;;;5088326;28;20037;-62
2021/04/23 11:13:33;;;;;;;10.52;2.70;;;19.70;30.00;;;;;;5081662;28;20040;-59
2021/04/23 11:16:23;;;;;;;11.82;2.65;;;20.00;30.50;;;;;;5090241;28;20027;-62
2021/04/23 11:18:53;;;;;;;7.93;2.60;;;20.20;30.90;;;;;;5091290;28;20031;-63
2021/04/23 11:21:32;;;;;;;11.77;2.63;;;20.30;31.20;;;;;;5089547;28;20035;-67
2021/04/23 11:24:11;;;;;;;6.15;2.67;;;20.40;31.40;;;;;;5094512;28;20028;-59
2021/04/23 11:26:58;;;;;;;7.95;1.92;;;20.40;31.40;;;;;;5092979;28;20081;-60
2021/04/23 11:29:28;;;;;;;9.38;2.92;;;20.50;31.50;;;;;;5093258;28;20032;-61
2021/04/23 11:32:18;;;;;;;12.25;2.95;;;20.50;31.40;;;;;;5093741;28;20075;-60
2021/04/23 11:35:10;;;;;;;8.00;1.90;;;20.50;31.50;;;;;;5093688;28;20040;-64
2021/04/23 11:37:42;;;;;;;8.02;1.92;;;20.60;31.60;;;;;;5088310;28;20040;-61
2021/04/23 11:40:27;;;;;;;9.25;2.90;;;20.60;31.70;;;;;;5093547;28;20024;-60
2021/04/23 11:42:58;;;;;;;8.88;1.80;;;20.70;32.00;;;;;;5093226;28;20408;-62
2021/04/23 11:45:34;;;;;;;8.70;2.45;;;20.70;32.40;;;;;;5085379;28;20039;-62
2021/04/23 11:48:06;;;;;;;6.65;2.30;;;20.50;29.90;;;;;;5093598;28;20039;-62
2021/04/23 11:50:35;;;;;;;10.38;3.17;;;20.30;27.50;;;;;;5093400;28;20028;-62
2021/04/23 11:53:20;;;;;;;10.23;3.10;;;20.20;27.90;;;;;;5093633;28;20047;-61
2021/04/23 11:55:49;;;;;;;10.30;2.83;;;20.00;27.30;;;;;;5086747;28;20040;-58
2021/04/23 11:58:16;;;;;;;9.65;3.28;;;20.00;28.10;;;;;;5092162;28;20161;-58
2021/04/23 12:00:44;;;;;;;11.98;2.50;;;20.10;28.60;;;;;;5091673;28;20469;-60
2021/04/23 12:03:12;;;;;;;7.70;2.08;;;20.30;28.50;;;;;;5093338;28;20166;-58
2021/04/23 12:05:43;;;;;;;7.82;1.90;;;20.30;28.20;;;;;;5092588;28;20215;-62
2021/04/23 12:08:24;;;;;;;7.97;2.17;;;20.40;27.90;;;;;;5093582;28;20039;-61
2021/04/23 12:10:52;;;;;;;8.15;2.10;;;20.50;29.30;;;;;;5093468;28;20043;-61
2021/04/23 12:13:24;;;;;;;10.93;2.20;;;20.50;30.00;;;;;;5093212;28;20042;-66
2021/04/23 12:15:52;;;;;;;9.73;2.97;;;20.50;29.50;;;;;;5093248;28;20033;-61
2021/04/23 12:18:18;;;;;;;12.43;2.03;;;20.60;29.90;;;;;;5092584;28;20028;-65
2021/04/23 12:20:48;;;;;;;16.95;2.97;;;20.70;30.60;;;;;;5089025;28;20043;-62
2021/04/23 12:23:23;;;;;;;14.25;3.13;;;20.70;30.80;;;;;;5085016;28;20032;-62
2021/04/23 12:25:52;;;;;;;16.65;2.50;;;20.70;30.80;;;;;;5085980;28;20024;-63
2021/04/23 12:28:45;;;;;;;9.80;2.08;;;20.80;31.10;;;;;;5088765;28;20036;-66
2021/04/23 12:31:31;;;;;;;9.15;3.22;;;20.80;31.30;;;;;;5084796;28;20533;-63
2021/04/23 12:34:02;;;;;;;9.68;2.03;;;20.70;31.00;;;;;;5089138;28;20035;-61
2021/04/23 12:36:36;;;;;;;16.73;3.97;;;20.70;31.40;;;;;;5085208;28;20489;-63
2021/04/23 12:39:05;;;;;;;6.90;2.72;;;20.80;31.50;;;;;;5085603;28;20187;-62
2021/04/23 12:41:40;;;;;;;7.93;1.88;;;20.80;31.60;;;;;;5088380;28;20059;-64
2021/04/23 12:44:14;;;;;;;7.63;2.28;;;20.80;31.50;;;;;;5085624;28;20111;-60
2021/04/23 12:46:52;;;;;;;8.32;1.77;;;20.80;31.70;;;;;;5086631;28;20028;-64
2021/04/23 12:49:44;;;;;;;10.48;2.35;;;20.80;31.70;;;;;;5085850;28;20031;-67
2021/04/23 12:52:18;;;;;;;5.78;1.90;;;20.90;32.00;;;;;;5087216;28;20077;-63
2021/04/23 12:54:49;;;;;;;4.20;1.85;;;20.90;32.10;;;;;;5087169;28;20051;-64
2021/04/23 12:57:21;;;;;;;7.38;2.15;;;20.90;32.40;;;;;;5083786;28;20058;-63